createdAt,value
2019-04-05T00:01:24.649Z,66.07
2019-04-05T00:03:55.549Z,65.81
2019-04-05T00:06:26.523Z,66.43
2019-04-05T00:08:57.423Z,67.20
2019-04-05T00:11:28.455Z,66.55
2019-04-05T00:13:59.353Z,66.87
2019-04-05T00:16:30.275Z,66.17
2019-04-05T00:19:01.176Z,66.95
2019-04-05T00:21:32.117Z,66.44
2019-04-05T00:24:03.015Z,66.36
2019-04-05T00:26:33.964Z,66.90
2019-04-05T00:29:04.849Z,67.14
2019-04-05T00:31:35.776Z,66.93
2019-04-05T00:34:06.691Z,66.19
2019-04-05T00:36:37.797Z,65.61
2019-04-05T00:39:09.563Z,66.05
2019-04-05T00:41:40.503Z,65.62
2019-04-05T00:44:11.406Z,65.61
2019-04-05T00:46:44.678Z,65.26
2019-04-05T00:49:14.937Z,65.62
2019-04-05T00:51:46.681Z,65.64
2019-04-05T00:54:17.583Z,65.19
2019-04-05T00:56:48.518Z,65.40
2019-04-05T00:59:19.475Z,65.81
2019-04-05T01:01:50.619Z,65.46
2019-04-05T01:04:21.530Z,64.86
2019-04-05T01:06:53.312Z,64.46
2019-04-05T01:09:24.218Z,64.80
2019-04-05T01:11:55.145Z,64.48
2019-04-05T01:14:27.650Z,64.41
2019-04-05T01:16:58.569Z,64.60
2019-04-05T01:19:33.169Z,65.13
2019-04-05T01:22:08.963Z,65.31
2019-04-05T01:24:39.980Z,66.77
2019-04-05T01:27:11.423Z,66.24
2019-04-05T01:29:44.223Z,66.36
2019-04-05T01:32:15.157Z,66.71
2019-04-05T01:34:46.069Z,66.75
2019-04-05T01:37:18.715Z,66.19
2019-04-05T01:39:49.625Z,67.55
2019-04-05T01:42:20.621Z,67.34
2019-04-05T01:44:51.998Z,67.18
2019-04-05T01:47:23.039Z,66.44
2019-04-05T01:49:53.933Z,66.35
2019-04-05T01:52:25.756Z,66.74
2019-04-05T01:54:56.645Z,66.00
2019-04-05T01:57:27.571Z,66.16
2019-04-05T01:59:58.545Z,66.37
2019-04-05T02:02:29.475Z,66.87
2019-04-05T02:05:00.377Z,66.65
2019-04-05T02:07:32.707Z,66.55
2019-04-05T02:10:04.716Z,67.51
2019-04-05T02:12:35.743Z,68.03
2019-04-05T02:15:08.365Z,67.68
2019-04-05T02:17:39.289Z,68.21
2019-04-05T02:20:10.907Z,69.20
2019-04-05T02:22:42.673Z,69.26
2019-04-05T02:25:13.653Z,68.67
2019-04-05T02:27:44.583Z,69.61
2019-04-05T02:30:16.422Z,70.06
2019-04-05T02:32:47.334Z,69.03
2019-04-05T02:35:18.237Z,69.02
2019-04-05T02:37:49.230Z,68.22
2019-04-05T02:40:20.229Z,68.79
2019-04-05T02:42:54.097Z,68.82
2019-04-05T02:45:26.933Z,69.15
2019-04-05T02:48:00.781Z,68.89
2019-04-05T02:50:33.942Z,69.65
2019-04-05T02:53:08.656Z,69.24
2019-04-05T02:55:42.313Z,69.95
2019-04-05T02:58:14.120Z,70.41
2019-04-05T03:00:45.729Z,70.38
2019-04-05T03:03:17.450Z,70.04
2019-04-05T03:05:48.582Z,70.08
2019-04-05T03:08:20.225Z,70.44
2019-04-05T03:11:08.519Z,70.59
2019-04-05T03:13:42.377Z,70.72
2019-04-05T03:16:18.843Z,70.55
2019-04-05T03:18:52.677Z,70.64
2019-04-05T03:21:27.233Z,69.88
2019-04-05T03:24:01.042Z,69.12
2019-04-05T03:26:35.189Z,68.57
2019-04-05T03:29:09.029Z,68.10
2019-04-05T03:31:40.452Z,68.40
2019-04-05T03:34:12.868Z,67.94
2019-04-05T03:36:43.965Z,67.73
2019-04-05T03:39:16.368Z,67.59
2019-04-05T03:41:47.489Z,67.45
2019-04-05T03:44:22.673Z,67.44
2019-04-05T03:46:56.785Z,67.33
2019-04-05T03:49:24.375Z,67.31
2019-04-05T03:51:55.409Z,67.25
2019-04-05T03:54:27.350Z,67.36
2019-04-05T03:56:58.996Z,67.35
2019-04-05T03:59:30.044Z,67.25
2019-04-05T04:02:00.986Z,67.38
2019-04-05T04:04:32.051Z,68.01
2019-04-05T04:07:03.121Z,68.54
2019-04-05T04:09:34.209Z,68.72
2019-04-05T04:12:05.504Z,68.21
2019-04-05T04:14:37.823Z,68.29
2019-04-05T04:17:12.781Z,67.90
2019-04-05T04:19:41.711Z,67.73
2019-04-05T04:22:22.366Z,68.09
2019-04-05T04:24:54.261Z,67.58
2019-04-05T04:27:25.262Z,67.57
2019-04-05T04:30:00.353Z,67.87
2019-04-05T04:32:30.101Z,67.99
2019-04-05T04:35:02.145Z,67.83
2019-04-05T04:37:33.147Z,68.04
2019-04-05T04:40:07.021Z,69.13
2019-04-05T04:42:37.914Z,68.88
2019-04-05T04:45:12.576Z,69.08
2019-04-05T04:47:41.750Z,68.78
2019-04-05T04:50:13.064Z,68.69
2019-04-05T04:52:44.679Z,68.56
2019-04-05T04:55:16.064Z,67.91
2019-04-05T04:57:47.675Z,67.40
2019-04-05T05:00:18.893Z,66.94
2019-04-05T05:02:49.805Z,66.65
2019-04-05T05:05:20.820Z,66.08
2019-04-05T05:07:51.824Z,65.61
2019-04-05T05:10:22.872Z,65.26
2019-04-05T05:12:53.962Z,64.82
2019-04-05T05:15:27.163Z,64.17
2019-04-05T05:17:58.839Z,63.55
2019-04-05T05:20:30.109Z,63.15
2019-04-05T05:23:02.599Z,62.58
2019-04-05T05:25:35.048Z,61.84
2019-04-05T05:28:06.145Z,61.05
2019-04-05T05:30:37.079Z,60.18
2019-04-05T05:33:07.991Z,59.96
2019-04-05T05:35:38.926Z,59.30
2019-04-05T05:38:09.840Z,58.73
2019-04-05T05:40:40.838Z,58.39
2019-04-05T05:43:11.747Z,58.29
2019-04-05T05:45:42.680Z,57.82
2019-04-05T05:48:13.996Z,57.79
2019-04-05T05:50:45.234Z,57.32
2019-04-05T05:53:16.147Z,57.14
2019-04-05T05:55:47.232Z,57.80
2019-04-05T05:58:18.144Z,57.36
2019-04-05T06:00:49.097Z,57.11
2019-04-05T06:03:20.009Z,56.94
2019-04-05T06:05:58.339Z,56.91
2019-04-05T06:08:23.565Z,56.87
2019-04-05T06:10:54.528Z,56.54
2019-04-05T06:13:25.444Z,56.13
2019-04-05T06:15:56.489Z,55.89
2019-04-05T06:18:27.404Z,56.38
2019-04-05T06:20:58.360Z,56.19
2019-04-05T06:23:33.838Z,56.47
2019-04-05T06:26:04.379Z,56.39
2019-04-05T06:28:35.322Z,55.69
2019-04-05T06:31:06.298Z,55.68
2019-04-05T06:33:37.212Z,55.72
2019-04-05T06:36:08.175Z,54.88
2019-04-05T06:38:39.136Z,54.46
2019-04-05T06:41:10.034Z,54.04
2019-04-05T06:43:41.890Z,53.57
2019-04-05T06:46:12.802Z,52.82
2019-04-05T06:48:43.865Z,51.55
2019-04-05T06:51:14.905Z,51.50
2019-04-05T06:53:48.877Z,50.40
2019-04-05T06:56:25.140Z,49.78
2019-04-05T06:59:00.265Z,49.41
2019-04-05T07:01:32.959Z,47.98
2019-04-05T07:07:19.907Z,44.42
2019-04-05T07:09:55.487Z,43.64
2019-04-05T07:12:29.211Z,42.76
2019-04-05T07:15:18.175Z,43.84
2019-04-05T07:17:56.278Z,43.03
2019-04-05T07:20:27.337Z,43.14
2019-04-05T07:23:03.759Z,42.40
2019-04-05T07:25:36.973Z,42.55
2019-04-05T07:28:14.689Z,42.30
2019-04-05T07:30:56.222Z,42.29
2019-04-05T07:33:33.585Z,42.50
2019-04-05T07:36:04.657Z,42.29
2019-04-05T07:38:36.090Z,42.25
2019-04-05T07:41:09.538Z,42.43
2019-04-05T07:43:50.419Z,42.76
2019-04-05T07:46:30.027Z,42.24
2019-04-05T07:49:08.138Z,41.21
2019-04-05T07:51:42.318Z,41.15
2019-04-05T07:54:13.963Z,41.20
2019-04-05T07:56:46.320Z,41.16
2019-04-05T07:59:21.564Z,41.10
2019-04-05T08:01:59.171Z,40.91
2019-04-05T08:04:33.864Z,41.05
2019-04-05T08:07:07.442Z,40.61
2019-04-05T08:09:39.828Z,41.28
2019-04-05T08:12:10.813Z,40.95
2019-04-05T08:14:43.868Z,42.15
2019-04-05T08:17:22.106Z,41.37
2019-04-05T08:20:03.547Z,41.77
2019-04-05T08:22:38.133Z,42.36
2019-04-05T08:25:35.410Z,42.43
2019-04-05T08:28:10.561Z,42.75
2019-04-05T08:30:43.698Z,42.83
2019-04-05T08:33:16.390Z,42.88
2019-04-05T08:35:47.422Z,43.30
2019-04-05T08:38:18.493Z,43.33
2019-04-05T08:40:52.445Z,43.32
2019-04-05T08:43:23.474Z,43.55
2019-04-05T08:45:54.386Z,43.56
2019-04-05T08:48:26.163Z,43.37
2019-04-05T08:50:57.087Z,43.25
2019-04-05T08:53:28.034Z,42.87
2019-04-05T08:55:58.965Z,42.56
2019-04-05T08:58:33.647Z,42.38
2019-04-05T09:01:02.518Z,42.90
2019-04-05T09:03:34.349Z,42.41
2019-04-05T09:06:05.260Z,43.02
2019-04-05T09:08:36.199Z,43.38
2019-04-05T09:11:07.105Z,43.03
2019-04-05T09:13:38.065Z,43.39
2019-04-05T09:16:11.571Z,43.39
2019-04-05T09:18:42.544Z,43.05
2019-04-05T09:21:13.458Z,43.86
2019-04-05T09:23:44.394Z,43.58
2019-04-05T09:26:16.165Z,43.02
2019-04-05T09:28:47.119Z,43.20
2019-04-05T09:31:18.028Z,42.86
2019-04-05T09:33:49.815Z,42.73
2019-04-05T09:36:20.739Z,42.91
2019-04-05T09:38:51.705Z,42.85
2019-04-05T09:41:22.622Z,42.91
2019-04-05T09:43:53.630Z,43.10
2019-04-05T09:46:24.554Z,42.82
2019-04-05T09:48:56.373Z,43.09
2019-04-05T09:51:27.457Z,42.87
2019-04-05T09:54:00.019Z,43.20
2019-04-05T09:56:31.189Z,43.20
2019-04-05T09:59:02.179Z,43.27
2019-04-05T10:01:33.348Z,43.36
2019-04-05T10:04:05.473Z,43.13
2019-04-05T10:06:36.499Z,43.20
2019-04-05T10:09:09.033Z,43.27
2019-04-05T10:11:39.967Z,43.17
2019-04-05T10:14:10.995Z,43.54
2019-04-05T10:16:41.952Z,43.18
2019-04-05T10:19:13.079Z,43.18
2019-04-05T10:21:44.140Z,43.05
2019-04-05T10:24:15.175Z,42.62
2019-04-05T10:26:47.336Z,42.83
2019-04-05T10:29:18.607Z,42.41
2019-04-05T10:31:49.563Z,42.01
2019-04-05T10:34:20.776Z,41.98
2019-04-05T10:36:51.761Z,42.55
2019-04-05T10:39:22.701Z,42.32
2019-04-05T10:42:03.488Z,42.05
2019-04-05T10:44:26.384Z,42.55
2019-04-05T10:46:57.424Z,42.22
2019-04-05T10:49:30.224Z,42.07
2019-04-05T10:52:01.174Z,41.56
2019-04-05T10:54:32.138Z,41.58
2019-04-05T10:57:03.199Z,41.73
2019-04-05T10:59:34.226Z,41.93
2019-04-05T11:02:05.149Z,41.68
2019-04-05T11:04:36.096Z,41.96
2019-04-05T11:07:07.022Z,42.16
2019-04-05T11:09:38.032Z,41.38
2019-04-05T11:12:09.731Z,41.30
2019-04-05T11:14:40.805Z,41.34
2019-04-05T11:17:11.818Z,41.51
2019-04-05T11:19:43.973Z,41.48
2019-04-05T11:22:15.020Z,41.04
2019-04-05T11:24:46.050Z,41.07
2019-04-05T11:27:17.969Z,40.87
2019-04-05T11:29:48.955Z,41.03
2019-04-05T11:32:19.954Z,40.84
2019-04-05T11:34:50.959Z,40.72
2019-04-05T11:37:22.262Z,40.69
2019-04-05T11:39:53.530Z,41.61
2019-04-05T11:42:26.340Z,40.90
2019-04-05T11:44:58.758Z,41.15
2019-04-05T11:47:30.888Z,41.08
2019-04-05T11:50:05.539Z,41.00
2019-04-05T11:52:36.553Z,41.09
2019-04-05T11:55:08.289Z,40.83
2019-04-05T11:57:41.443Z,40.96
2019-04-05T12:00:15.514Z,40.76
2019-04-05T12:02:51.253Z,40.44
2019-04-05T12:05:26.840Z,40.35
2019-04-05T12:08:01.031Z,40.25
2019-04-05T12:10:31.876Z,40.40
2019-04-05T12:13:01.713Z,40.11
2019-04-05T12:15:33.525Z,40.03
2019-04-05T12:18:05.670Z,39.77
2019-04-05T12:20:47.858Z,39.63
2019-04-05T12:23:10.153Z,39.65
2019-04-05T12:25:41.091Z,39.53
2019-04-05T12:28:12.845Z,39.62
2019-04-05T12:30:46.079Z,38.91
2019-04-05T12:33:19.645Z,39.03
2019-04-05T12:35:53.019Z,38.88
2019-04-05T12:38:35.984Z,39.06
2019-04-05T12:41:11.108Z,38.68
2019-04-05T12:43:44.020Z,38.78
2019-04-05T12:46:16.115Z,38.88
2019-04-05T12:48:52.217Z,38.52
2019-04-05T12:51:23.319Z,38.06
2019-04-05T12:53:56.411Z,37.96
2019-04-05T12:56:27.249Z,38.16
2019-04-05T12:58:58.617Z,37.84
2019-04-05T13:01:29.589Z,37.65
2019-04-05T13:04:00.627Z,37.81
2019-04-05T13:06:32.470Z,37.58
2019-04-05T13:09:05.661Z,37.55
2019-04-05T13:11:36.625Z,37.36
2019-04-05T13:14:07.723Z,37.39
2019-04-05T13:16:38.696Z,37.12
2019-04-05T13:19:09.680Z,36.69
2019-04-05T13:21:40.795Z,37.08
2019-04-05T13:24:14.423Z,36.96
2019-04-05T13:26:45.444Z,36.64
2019-04-05T13:29:19.756Z,36.97
2019-04-05T13:31:50.720Z,37.48
2019-04-05T13:34:25.605Z,37.24
2019-04-05T13:36:55.264Z,37.24
2019-04-05T13:39:27.535Z,36.07
2019-04-05T13:42:01.305Z,35.81
2019-04-05T13:44:32.429Z,35.99
2019-04-05T13:47:03.533Z,36.36
2019-04-05T13:49:34.501Z,36.52
2019-04-05T13:52:06.819Z,36.86
2019-04-05T13:54:38.294Z,35.91
2019-04-05T13:57:11.549Z,36.20
2019-04-05T13:59:44.689Z,36.10
2019-04-05T14:02:15.435Z,36.61
2019-04-05T14:04:46.579Z,35.86
2019-04-05T14:07:18.631Z,35.96
2019-04-05T14:09:49.578Z,36.33
2019-04-05T14:12:20.535Z,35.84
2019-04-05T14:14:51.869Z,35.96
2019-04-05T14:17:23.199Z,35.94
2019-04-05T14:19:54.261Z,36.17
2019-04-05T14:22:26.355Z,35.89
2019-04-05T14:24:57.720Z,36.15
2019-04-05T14:27:28.697Z,36.18
2019-04-05T14:30:02.359Z,36.22
2019-04-05T14:32:32.897Z,36.47
2019-04-05T14:35:08.015Z,36.48
2019-04-05T14:37:47.135Z,36.34
2019-04-05T14:40:23.590Z,36.41
2019-04-05T14:42:57.007Z,36.42
2019-04-05T14:45:29.493Z,36.57
2019-04-05T14:48:05.235Z,36.43
2019-04-05T14:50:42.795Z,36.48
2019-04-05T14:53:14.695Z,36.38
2019-04-05T14:55:45.700Z,36.75
2019-04-05T14:58:19.138Z,37.23
2019-04-05T15:00:49.675Z,37.07
2019-04-05T15:03:20.672Z,37.21
2019-04-05T15:05:51.613Z,37.25
2019-04-05T15:08:23.449Z,37.16
2019-04-05T15:10:56.867Z,37.34
2019-04-05T15:13:27.462Z,37.24
2019-04-05T15:15:58.507Z,37.13
2019-04-05T15:18:29.643Z,37.18
2019-04-05T15:21:00.716Z,37.98
2019-04-05T15:23:32.617Z,38.20
2019-04-05T15:26:03.582Z,38.32
2019-04-05T15:28:34.608Z,38.20
2019-04-05T15:31:06.367Z,38.32
2019-04-05T15:33:37.539Z,38.70
2019-04-05T15:36:08.496Z,38.51
2019-04-05T15:38:41.758Z,38.35
2019-04-05T15:41:12.679Z,38.45
2019-04-05T15:43:43.617Z,39.04
2019-04-05T15:46:15.486Z,38.83
2019-04-05T15:48:46.450Z,38.88
2019-04-05T15:51:17.677Z,38.93
2019-04-05T15:53:48.655Z,38.85
2019-04-05T15:56:19.559Z,38.82
2019-04-05T15:58:52.395Z,38.80
2019-04-05T16:01:23.234Z,38.88
2019-04-05T16:03:54.287Z,39.00
2019-04-05T16:06:25.270Z,39.01
2019-04-05T16:08:57.067Z,39.20
2019-04-05T16:11:28.051Z,39.21
2019-04-05T16:13:59.107Z,39.17
2019-04-05T16:16:30.220Z,39.05
2019-04-05T16:19:01.315Z,39.43
2019-04-05T16:21:32.800Z,39.57
2019-04-05T16:24:04.984Z,39.62
2019-04-05T16:26:36.001Z,39.61
2019-04-05T16:29:06.974Z,39.77
2019-04-05T16:31:43.988Z,39.66
2019-04-05T16:34:15.120Z,39.58
2019-04-05T16:36:46.057Z,39.54
2019-04-05T16:39:18.544Z,39.66
2019-04-05T16:41:58.970Z,39.77
2019-04-05T16:44:29.942Z,39.82
2019-04-05T16:47:00.888Z,40.05
2019-04-05T16:49:31.936Z,40.06
2019-04-05T16:52:02.901Z,40.16
2019-04-05T16:54:34.617Z,40.29
2019-04-05T16:57:06.117Z,40.57
2019-04-05T16:59:37.403Z,40.99
2019-04-05T17:02:08.628Z,41.19
2019-04-05T17:04:39.589Z,41.69
2019-04-05T17:07:10.548Z,41.81
2019-04-05T17:09:41.687Z,41.99
2019-04-05T17:12:12.649Z,42.46
2019-04-05T17:14:43.718Z,42.48
2019-04-05T17:17:14.829Z,42.72
2019-04-05T17:19:45.838Z,43.15
2019-04-05T17:22:16.795Z,43.36
2019-04-05T17:24:49.021Z,43.92
2019-04-05T17:27:19.953Z,44.15
2019-04-05T17:29:51.024Z,44.01
2019-04-05T17:32:22.762Z,44.47
2019-04-05T17:34:54.006Z,44.88
2019-04-05T17:37:26.608Z,45.19
2019-04-05T17:39:58.674Z,45.57
2019-04-05T17:42:29.619Z,45.47
2019-04-05T17:45:00.566Z,45.77
2019-04-05T17:47:31.482Z,45.98
2019-04-05T17:50:02.646Z,46.24
2019-04-05T17:52:33.637Z,46.93
2019-04-05T17:55:05.126Z,47.15
2019-04-05T17:57:36.146Z,47.44
2019-04-05T18:00:09.873Z,47.47
2019-04-05T18:02:40.790Z,47.62
2019-04-05T18:05:11.735Z,48.09
2019-04-05T18:07:42.978Z,48.15
2019-04-05T18:10:14.149Z,48.12
2019-04-05T18:12:45.059Z,48.23
2019-04-05T18:15:16.088Z,48.25
2019-04-05T18:17:47.114Z,48.76
2019-04-05T18:20:18.062Z,48.86
2019-04-05T18:22:48.974Z,49.11
2019-04-05T18:25:20.826Z,49.28
2019-04-05T18:27:51.754Z,49.42
2019-04-05T18:30:22.755Z,49.64
2019-04-05T18:32:54.551Z,49.90
2019-04-05T18:35:25.503Z,50.12
2019-04-05T18:37:56.417Z,50.69
2019-04-05T18:40:39.444Z,50.60
2019-04-05T18:43:01.668Z,50.79
2019-04-05T18:45:33.681Z,51.04
2019-04-05T18:48:05.732Z,50.96
2019-04-05T18:50:37.340Z,51.09
2019-04-05T18:53:08.564Z,51.15
2019-04-05T18:55:40.590Z,51.07
2019-04-05T18:58:11.516Z,50.95
2019-04-05T19:00:42.441Z,50.93
2019-04-05T19:03:13.356Z,50.86
2019-04-05T19:05:44.381Z,51.02
2019-04-05T19:08:15.299Z,51.29
2019-04-05T19:10:47.071Z,51.44
2019-04-05T19:13:17.992Z,51.25
2019-04-05T19:15:48.928Z,51.33
2019-04-05T19:18:40.941Z,51.34
2019-04-05T19:21:11.991Z,51.27
2019-04-05T19:23:50.811Z,51.31
2019-04-05T19:26:16.381Z,51.63
2019-04-05T19:28:47.384Z,51.70
2019-04-05T19:49:10.135Z,52.07
2019-04-05T19:51:41.222Z,52.26
2019-04-05T19:54:12.128Z,52.35
2019-04-05T19:56:43.190Z,52.40
2019-04-05T19:59:14.128Z,52.48
2019-04-05T20:01:46.144Z,52.28
2019-04-05T20:04:17.057Z,52.74
2019-04-05T20:06:57.914Z,52.54
2019-04-05T20:09:21.241Z,52.31
2019-04-05T20:11:54.816Z,52.08
2019-04-05T20:14:25.737Z,52.36
2019-04-05T20:16:56.793Z,52.48
2019-04-05T20:19:27.676Z,52.16
2019-04-05T20:21:59.299Z,52.07
2019-04-05T20:24:31.013Z,52.20
2019-04-05T20:27:03.086Z,52.07
2019-04-05T20:29:34.129Z,52.30
2019-04-05T20:32:06.041Z,52.21
2019-04-05T20:34:37.757Z,52.08
2019-04-05T20:37:08.738Z,51.99
2019-04-05T20:39:39.668Z,51.91
2019-04-05T20:42:11.613Z,51.91
2019-04-05T20:44:42.566Z,52.10
2019-04-05T20:47:13.555Z,52.24
2019-04-05T20:49:44.578Z,52.31
2019-04-05T20:52:15.568Z,52.23
2019-04-05T20:54:46.490Z,52.47
2019-04-05T20:57:19.169Z,52.53
2019-04-05T20:59:50.103Z,52.67
2019-04-05T21:02:21.052Z,53.09
2019-04-05T21:04:51.986Z,52.99
2019-04-05T21:07:22.990Z,53.03
2019-04-05T21:09:54.045Z,53.50
2019-04-05T21:12:25.969Z,53.56
2019-04-05T21:14:56.937Z,53.80
2019-04-05T21:17:27.924Z,53.92
2019-04-05T21:19:58.855Z,53.99
2019-04-05T21:22:29.823Z,54.09
2019-04-05T21:25:02.456Z,53.90
2019-04-05T21:27:33.439Z,53.79
2019-04-05T21:30:06.502Z,53.74
2019-04-05T21:32:37.470Z,53.72
2019-04-05T21:35:09.331Z,54.00
2019-04-05T21:37:40.406Z,54.02
2019-04-05T21:40:11.371Z,54.15
2019-04-05T21:42:43.246Z,54.14
2019-04-05T21:45:14.204Z,54.09
2019-04-05T21:47:45.243Z,54.34
2019-04-05T21:50:16.253Z,54.31
2019-04-05T21:52:47.221Z,54.63
2019-04-05T21:55:18.242Z,54.75
2019-04-05T21:57:49.241Z,54.77
2019-04-05T22:00:33.679Z,54.44
2019-04-05T22:03:04.624Z,54.62
2019-04-05T22:05:35.526Z,54.51
2019-04-05T22:08:06.471Z,54.35
2019-04-05T22:10:37.391Z,54.28
2019-04-05T22:13:09.139Z,54.54
2019-04-05T22:15:40.054Z,54.46
2019-04-05T22:18:10.993Z,54.35
2019-04-05T22:20:41.899Z,54.74
2019-04-05T22:23:12.837Z,54.80
2019-04-05T22:25:43.795Z,54.89
2019-04-05T22:28:14.856Z,54.59
2019-04-05T22:30:45.765Z,54.59
2019-04-05T22:33:16.697Z,54.61
2019-04-05T22:35:48.512Z,54.61
2019-04-05T22:38:19.409Z,54.46
2019-04-05T22:40:52.805Z,54.39
2019-04-05T22:43:23.725Z,54.36
2019-04-05T22:45:55.489Z,54.31
2019-04-05T22:48:26.469Z,54.30
2019-04-05T22:50:57.416Z,54.35
2019-04-05T22:53:28.418Z,54.37
2019-04-05T22:55:59.315Z,54.50
2019-04-05T22:58:30.224Z,54.58
2019-04-05T23:01:02.000Z,54.56
2019-04-05T23:03:32.901Z,54.62
2019-04-05T23:06:03.829Z,54.69
2019-04-05T23:08:34.717Z,54.66
2019-04-05T23:11:05.657Z,54.95
2019-04-05T23:13:36.555Z,54.83
2019-04-05T23:16:08.555Z,54.88
2019-04-05T23:18:39.473Z,54.96
2019-04-05T23:21:10.389Z,54.93
2019-04-05T23:23:41.298Z,55.44
2019-04-05T23:26:12.241Z,55.30
2019-04-05T23:28:43.137Z,55.41
2019-04-05T23:31:14.235Z,55.48
2019-04-05T23:33:45.214Z,55.43
2019-04-05T23:36:16.153Z,55.38
2019-04-05T23:38:47.070Z,55.26
2019-04-05T23:41:17.996Z,55.28
2019-04-05T23:43:48.899Z,55.46
2019-04-05T23:46:20.738Z,55.48
2019-04-05T23:48:51.638Z,55.55
2019-04-05T23:51:22.563Z,55.45
2019-04-05T23:53:53.467Z,56.07
2019-04-05T23:56:24.398Z,55.85
2019-04-05T23:58:55.316Z,56.06
